createdAt,value
2023-03-27T00:00:16.665Z,14.83
2023-03-27T00:05:20.639Z,5.90
2023-03-27T00:10:23.822Z,7.45
2023-03-27T00:15:27.816Z,8.02
2023-03-27T00:20:32.046Z,10.95
2023-03-27T00:25:35.417Z,7.20
2023-03-27T00:30:40.858Z,8.63
2023-03-27T00:35:46.834Z,9.13
2023-03-27T00:40:50.853Z,6.47
2023-03-27T00:45:59.261Z,7.57
2023-03-27T00:51:02.531Z,8.43
2023-03-27T00:56:08.007Z,10.82
2023-03-27T01:01:15.577Z,7.40
2023-03-27T01:06:19.414Z,15.02
2023-03-27T01:11:37.130Z,7.28
2023-03-27T01:16:48.613Z,9.18
2023-03-27T01:22:09.460Z,9.70
2023-03-27T01:27:19.081Z,13.50
2023-03-27T01:33:00.607Z,12.13
2023-03-27T01:38:37.808Z,9.55
2023-03-27T01:43:49.026Z,12.70
2023-03-27T01:48:56.977Z,13.73
2023-03-27T01:54:03.360Z,13.40
2023-03-27T01:59:12.979Z,7.22
2023-03-27T02:04:20.131Z,16.48
2023-03-27T02:09:26.112Z,13.85
2023-03-27T02:14:34.492Z,9.70
2023-03-27T02:19:47.552Z,13.00
2023-03-27T02:24:54.930Z,9.13
2023-03-27T02:30:06.079Z,8.40
2023-03-27T02:35:21.878Z,14.63
2023-03-27T02:40:40.019Z,12.57
2023-03-27T02:45:56.482Z,12.98
2023-03-27T02:51:04.647Z,11.57
2023-03-27T02:56:11.892Z,15.07
2023-03-27T03:01:18.779Z,19.83
2023-03-27T03:06:22.802Z,16.63
2023-03-27T03:11:27.838Z,12.90
2023-03-27T03:16:31.883Z,9.93
2023-03-27T03:21:34.892Z,10.50
2023-03-27T03:26:37.970Z,13.07
2023-03-27T03:31:44.866Z,13.25
2023-03-27T03:36:49.624Z,11.80
2023-03-27T03:41:52.620Z,17.98
2023-03-27T03:46:56.654Z,13.52
2023-03-27T03:52:03.563Z,13.32
2023-03-27T03:57:06.657Z,10.80
2023-03-27T04:02:12.255Z,13.20
2023-03-27T04:07:17.748Z,10.90
2023-03-27T04:12:20.280Z,7.75
2023-03-27T04:17:26.418Z,10.27
2023-03-27T04:22:29.266Z,14.75
2023-03-27T04:27:31.868Z,5.97
2023-03-27T04:32:36.761Z,6.23
2023-03-27T04:37:41.517Z,10.52
2023-03-27T04:42:45.054Z,8.95
2023-03-27T04:52:58.511Z,11.88
2023-03-27T04:58:02.391Z,8.10
2023-03-27T05:03:06.934Z,5.20
2023-03-27T05:08:09.778Z,10.15
2023-03-27T05:13:13.127Z,11.23
2023-03-27T05:18:17.162Z,8.40
2023-03-27T05:23:21.302Z,6.47
2023-03-27T05:28:23.988Z,7.72
2023-03-27T05:33:28.215Z,8.00
2023-03-27T05:38:31.462Z,6.35
2023-03-27T05:43:34.063Z,6.97
2023-03-27T05:48:38.603Z,4.38
2023-03-27T05:53:41.484Z,5.53
2023-03-27T05:58:44.081Z,11.13
2023-03-27T06:03:49.381Z,5.75
2023-03-27T06:08:52.080Z,10.45
2023-03-27T06:13:55.830Z,6.03
2023-03-27T06:19:01.212Z,5.30
2023-03-27T06:24:04.063Z,4.78
2023-03-27T06:29:08.170Z,6.20
2023-03-27T06:34:14.956Z,6.80
2023-03-27T06:39:17.718Z,6.55
2023-03-27T06:44:20.309Z,3.20
2023-03-27T06:49:24.274Z,2.92
2023-03-27T06:54:26.858Z,4.38
2023-03-27T06:59:29.391Z,5.33
2023-03-27T07:04:33.388Z,4.37
2023-03-27T07:09:38.729Z,5.20
2023-03-27T07:14:42.585Z,4.28
2023-03-27T07:19:46.603Z,3.20
2023-03-27T07:24:49.241Z,5.95
2023-03-27T07:29:51.876Z,5.43
2023-03-27T07:34:58.345Z,5.47
2023-03-27T07:40:01.051Z,4.20
2023-03-27T07:45:04.655Z,5.07
2023-03-27T07:50:11.560Z,5.47
2023-03-27T07:55:17.404Z,3.35
2023-03-27T08:00:22.882Z,2.65
2023-03-27T08:05:26.856Z,2.88
2023-03-27T08:10:29.416Z,5.55
2023-03-27T08:15:32.250Z,3.13
2023-03-27T08:20:36.804Z,3.13
2023-03-27T08:25:42.529Z,7.32
2023-03-27T08:30:45.311Z,6.25
2023-03-27T08:35:50.053Z,5.00
2023-03-27T08:40:58.812Z,3.03
2023-03-27T08:46:06.488Z,3.40
2023-03-27T08:51:16.879Z,5.18
2023-03-27T08:56:21.654Z,6.43
2023-03-27T09:01:31.137Z,2.28
2023-03-27T09:06:39.654Z,3.45
2023-03-27T09:11:54.622Z,4.20
2023-03-27T09:17:01.994Z,2.85
2023-03-27T09:22:11.646Z,2.13
2023-03-27T09:27:18.850Z,3.85
2023-03-27T09:32:21.460Z,4.28
2023-03-27T09:37:28.642Z,1.53
2023-03-27T09:42:37.218Z,4.82
2023-03-27T09:47:46.666Z,1.23
2023-03-27T09:52:52.312Z,1.67
2023-03-27T09:58:00.166Z,2.13
2023-03-27T10:03:05.867Z,1.45
2023-03-27T10:08:32.106Z,4.28
2023-03-27T10:13:35.668Z,1.23
2023-03-27T10:18:44.177Z,2.63
2023-03-27T10:23:50.262Z,2.75
2023-03-27T10:28:59.081Z,1.25
2023-03-27T10:34:03.424Z,1.42
2023-03-27T10:39:12.830Z,2.45
2023-03-27T10:44:17.739Z,2.53
2023-03-27T10:49:29.706Z,5.18
2023-03-27T10:54:43.422Z,2.28
2023-03-27T10:59:51.562Z,5.20
2023-03-27T11:04:59.877Z,3.53
2023-03-27T11:10:13.051Z,3.72
2023-03-27T11:15:22.194Z,2.47
2023-03-27T11:20:31.542Z,3.45
2023-03-27T11:25:41.067Z,4.03
2023-03-27T11:30:48.275Z,1.67
2023-03-27T11:35:59.133Z,2.50
2023-03-27T11:41:03.176Z,1.52
2023-03-27T11:46:19.326Z,3.20
2023-03-27T11:51:32.172Z,4.55
2023-03-27T11:56:45.485Z,4.43
2023-03-27T12:01:56.747Z,2.92
2023-03-27T12:07:11.748Z,3.45
2023-03-27T12:12:33.987Z,4.75
2023-03-27T12:17:45.815Z,1.88
2023-03-27T12:22:56.751Z,2.35
2023-03-27T12:28:22.477Z,1.35
2023-03-27T12:33:54.338Z,2.92
2023-03-27T12:38:57.754Z,3.90
2023-03-27T12:44:03.751Z,1.88
2023-03-27T12:49:48.155Z,2.50
2023-03-27T12:55:31.009Z,3.43
2023-03-27T13:00:36.645Z,1.70
2023-03-27T13:06:00.563Z,2.60
2023-03-27T13:11:17.104Z,4.32
2023-03-27T13:16:41.137Z,2.58
2023-03-27T13:21:51.205Z,4.25
2023-03-27T13:27:06.814Z,3.53
2023-03-27T13:32:33.110Z,4.47
2023-03-27T13:37:48.969Z,1.55
2023-03-27T13:43:01.493Z,5.32
2023-03-27T13:48:33.633Z,4.07
2023-03-27T13:53:47.443Z,3.30
2023-03-27T14:04:29.477Z,2.92
2023-03-27T14:09:53.959Z,2.63
2023-03-27T14:20:23.685Z,1.33
2023-03-27T14:25:31.366Z,5.50
2023-03-27T14:30:45.163Z,2.88
2023-03-27T14:35:55.262Z,5.55
2023-03-27T14:40:59.545Z,3.10
2023-03-27T14:46:04.939Z,2.45
2023-03-27T14:51:13.571Z,4.03
2023-03-27T14:56:27.589Z,2.05
2023-03-27T15:06:36.714Z,6.90
2023-03-27T15:11:41.102Z,5.47
2023-03-27T15:16:47.420Z,4.00
2023-03-27T15:21:59.063Z,6.97
2023-03-27T15:27:05.101Z,5.18
2023-03-27T15:32:11.726Z,5.82
2023-03-27T15:37:19.805Z,4.45
2023-03-27T15:42:22.480Z,2.35
2023-03-27T15:47:26.810Z,8.83
2023-03-27T15:52:32.833Z,5.10
2023-03-27T15:57:35.548Z,5.78
2023-03-27T16:02:39.287Z,3.87
2023-03-27T16:07:47.065Z,4.28
2023-03-27T16:12:52.314Z,5.95
2023-03-27T16:17:58.060Z,5.18
2023-03-27T16:23:02.192Z,4.10
2023-03-27T16:28:08.601Z,5.57
2023-03-27T16:33:15.766Z,2.75
2023-03-27T16:38:20.823Z,6.10
2023-03-27T16:43:24.346Z,2.67
2023-03-27T16:53:31.697Z,5.10
2023-03-27T16:58:35.251Z,4.97
2023-03-27T17:08:42.056Z,2.78
2023-03-27T17:13:45.068Z,5.35
2023-03-27T17:18:47.732Z,4.07
2023-03-27T17:23:53.512Z,7.55
2023-03-27T17:28:56.731Z,6.13
2023-03-27T17:34:01.012Z,6.53
2023-03-27T17:39:07.332Z,5.97
2023-03-27T17:44:12.399Z,6.60
2023-03-27T17:49:15.499Z,7.57
2023-03-27T17:54:19.460Z,5.00
2023-03-27T17:59:22.101Z,5.50
2023-03-27T18:04:24.909Z,4.10
2023-03-27T18:09:29.095Z,7.40
2023-03-27T18:14:32.659Z,6.47
2023-03-27T18:19:35.466Z,5.97
2023-03-27T18:24:40.345Z,7.73
2023-03-27T18:29:43.070Z,8.23
2023-03-27T18:34:45.609Z,12.70
2023-03-27T18:39:50.542Z,7.57
2023-03-27T18:44:53.103Z,7.22
2023-03-27T18:49:57.480Z,7.47
2023-03-27T18:55:03.497Z,3.65
2023-03-27T19:00:08.936Z,3.50
2023-03-27T19:05:12.948Z,6.00
2023-03-27T19:10:17.088Z,5.47
2023-03-27T19:15:20.481Z,5.10
2023-03-27T19:20:23.970Z,5.43
2023-03-27T19:25:28.625Z,8.20
2023-03-27T19:30:32.314Z,5.40
2023-03-27T19:35:35.247Z,5.93
2023-03-27T19:40:39.296Z,7.07
2023-03-27T19:45:41.903Z,9.50
2023-03-27T19:50:44.564Z,5.30
2023-03-27T19:55:48.467Z,7.65
2023-03-27T20:00:52.425Z,4.28
2023-03-27T20:06:06.980Z,6.07
2023-03-27T20:11:12.390Z,6.65
2023-03-27T20:16:16.431Z,3.60
2023-03-27T20:21:19.113Z,11.32
2023-03-27T20:26:24.202Z,9.45
2023-03-27T20:31:26.824Z,8.90
2023-03-27T20:36:29.478Z,15.77
2023-03-27T20:41:33.468Z,6.32
2023-03-27T20:46:36.045Z,8.40
2023-03-27T20:51:39.977Z,9.70
2023-03-27T20:56:45.063Z,19.35
2023-03-27T21:01:47.672Z,9.98
2023-03-27T21:06:51.497Z,11.40
2023-03-27T21:11:56.219Z,9.75
2023-03-27T21:16:58.892Z,9.45
2023-03-27T21:22:03.469Z,6.57
2023-03-27T21:27:08.586Z,9.23
2023-03-27T21:32:11.478Z,11.40
2023-03-27T21:37:14.228Z,13.60
2023-03-27T21:42:21.789Z,8.48
2023-03-27T21:47:31.717Z,8.63
2023-03-27T21:52:40.097Z,6.97
2023-03-27T21:57:43.996Z,6.60
2023-03-27T22:02:46.638Z,4.40
2023-03-27T22:07:49.224Z,6.50
2023-03-27T22:12:53.141Z,8.05
2023-03-27T22:17:56.063Z,9.07
2023-03-27T22:22:58.715Z,9.13
2023-03-27T22:28:02.777Z,12.18
2023-03-27T22:33:05.507Z,9.57
2023-03-27T22:38:08.605Z,5.67
2023-03-27T22:43:23.310Z,7.90
2023-03-27T22:48:27.067Z,10.93
2023-03-27T22:58:35.708Z,4.72
2023-03-27T23:03:39.027Z,9.05
2023-03-27T23:08:41.643Z,9.15
2023-03-27T23:13:46.002Z,10.27
2023-03-27T23:18:48.590Z,7.88
2023-03-27T23:23:51.236Z,9.93
2023-03-27T23:28:55.339Z,6.90
2023-03-27T23:33:57.882Z,7.47
2023-03-27T23:39:00.736Z,7.85
2023-03-27T23:44:04.773Z,8.97
2023-03-27T23:49:07.354Z,6.10
2023-03-27T23:54:10.065Z,11.57
2023-03-27T23:59:14.196Z,7.25
